createdAt,value
2019-05-30T00:00:14.965Z,10.87
2019-05-30T00:02:32.036Z,10.87
2019-05-30T00:05:02.785Z,11.53
2019-05-30T00:07:31.992Z,11.70
2019-05-30T00:10:00.829Z,10.27
2019-05-30T00:12:31.339Z,11.50
2019-05-30T00:15:00.915Z,11.03
2019-05-30T00:17:31.166Z,12.40
2019-05-30T00:20:01.118Z,13.07
2019-05-30T00:22:29.788Z,12.70
2019-05-30T00:25:00.074Z,13.83
2019-05-30T00:27:28.565Z,13.83
2019-05-30T00:29:57.421Z,13.77
2019-05-30T00:32:27.956Z,13.30
2019-05-30T00:34:57.822Z,12.83
2019-05-30T00:37:26.118Z,13.00
2019-05-30T00:39:55.794Z,12.30
2019-05-30T00:42:24.949Z,13.40
2019-05-30T00:44:54.239Z,12.97
2019-05-30T00:47:23.088Z,12.80
2019-05-30T00:49:52.404Z,12.83
2019-05-30T00:52:23.315Z,12.83
2019-05-30T00:54:53.084Z,12.10
2019-05-30T00:57:22.935Z,12.40
2019-05-30T00:59:51.741Z,11.93
2019-05-30T01:02:21.290Z,12.67
2019-05-30T01:04:50.757Z,11.77
2019-05-30T01:07:20.531Z,11.90
2019-05-30T01:09:49.463Z,11.60
2019-05-30T01:12:18.375Z,11.60
2019-05-30T01:14:47.212Z,11.13
2019-05-30T01:17:16.763Z,11.30
2019-05-30T01:19:45.666Z,12.03
2019-05-30T01:22:15.549Z,11.37
2019-05-30T01:24:44.634Z,12.23
2019-05-30T01:27:14.195Z,12.13
2019-05-30T01:29:43.156Z,12.20
2019-05-30T01:32:32.522Z,12.43
2019-05-30T01:35:02.183Z,13.33
2019-05-30T01:37:30.811Z,14.57
2019-05-30T01:39:59.796Z,15.03
2019-05-30T01:42:29.112Z,14.47
2019-05-30T01:44:58.127Z,14.07
2019-05-30T01:47:26.949Z,15.20
2019-05-30T01:49:56.726Z,13.27
2019-05-30T01:52:26.186Z,12.43
2019-05-30T01:54:58.413Z,12.90
2019-05-30T01:57:26.467Z,11.67
2019-05-30T01:59:56.493Z,11.10
2019-05-30T02:02:25.296Z,10.77
2019-05-30T02:04:54.754Z,9.30
2019-05-30T02:07:24.548Z,9.33
2019-05-30T02:09:53.401Z,9.47
2019-05-30T02:12:22.557Z,9.47
2019-05-30T02:14:52.779Z,9.60
2019-05-30T02:17:22.601Z,7.77
2019-05-30T02:19:52.320Z,8.00
2019-05-30T02:22:22.369Z,8.77
2019-05-30T02:24:51.949Z,7.93
2019-05-30T02:27:21.662Z,8.57
2019-05-30T02:29:51.147Z,7.57
2019-05-30T02:32:20.107Z,7.50
2019-05-30T02:34:50.967Z,7.47
2019-05-30T02:37:20.088Z,6.50
2019-05-30T02:39:49.618Z,5.57
2019-05-30T02:42:19.132Z,5.03
2019-05-30T02:44:48.634Z,5.10
2019-05-30T02:47:21.982Z,5.20
2019-05-30T02:49:47.035Z,4.80
2019-05-30T02:52:16.607Z,5.17
2019-05-30T02:54:46.533Z,5.00
2019-05-30T02:57:15.611Z,4.70
2019-05-30T02:59:44.407Z,5.37
2019-05-30T03:02:17.333Z,4.63
2019-05-30T03:04:45.118Z,4.40
2019-05-30T03:07:17.435Z,4.53
2019-05-30T03:09:47.520Z,4.20
2019-05-30T03:12:16.310Z,3.60
2019-05-30T03:14:46.221Z,3.40
2019-05-30T03:17:15.093Z,3.57
2019-05-30T03:19:45.621Z,3.67
2019-05-30T03:22:15.714Z,3.70
2019-05-30T03:24:45.510Z,3.00
2019-05-30T03:27:16.872Z,3.50
2019-05-30T03:29:45.784Z,3.00
2019-05-30T03:32:59.122Z,2.83
2019-05-30T03:34:43.425Z,3.57
2019-05-30T03:37:23.197Z,3.23
2019-05-30T03:39:44.418Z,3.07
2019-05-30T03:42:15.942Z,2.63
2019-05-30T03:44:43.967Z,3.00
2019-05-30T03:47:13.786Z,2.53
2019-05-30T03:49:43.306Z,2.80
2019-05-30T03:52:16.770Z,2.67
2019-05-30T03:54:42.794Z,3.73
2019-05-30T03:57:17.185Z,3.40
2019-05-30T04:00:02.991Z,2.80
2019-05-30T04:02:56.574Z,2.80
2019-05-30T04:05:14.206Z,2.73
2019-05-30T04:07:44.872Z,2.90
2019-05-30T04:10:16.670Z,2.63
2019-05-30T04:12:57.942Z,2.10
2019-05-30T04:15:31.315Z,3.13
2019-05-30T04:18:00.112Z,2.90
2019-05-30T04:20:28.920Z,2.37
2019-05-30T04:22:58.593Z,2.87
2019-05-30T04:25:28.124Z,2.60
2019-05-30T04:27:58.552Z,2.73
2019-05-30T04:30:27.389Z,2.53
2019-05-30T04:33:16.088Z,3.00
2019-05-30T04:35:26.436Z,2.67
2019-05-30T04:37:55.338Z,2.80
2019-05-30T04:40:24.657Z,2.80
2019-05-30T04:42:55.217Z,3.30
2019-05-30T04:45:28.057Z,3.27
2019-05-30T04:47:54.111Z,4.17
2019-05-30T04:50:23.068Z,3.70
2019-05-30T04:52:55.347Z,3.30
2019-05-30T04:55:24.206Z,3.70
2019-05-30T04:57:53.726Z,3.33
2019-05-30T05:00:23.244Z,3.60
2019-05-30T05:02:53.805Z,3.27
2019-05-30T05:05:26.708Z,3.77
2019-05-30T05:07:53.251Z,3.90
2019-05-30T05:10:23.265Z,3.70
2019-05-30T05:12:52.439Z,3.03
2019-05-30T05:15:22.800Z,3.43
2019-05-30T05:17:50.568Z,3.47
2019-05-30T05:20:21.417Z,3.60
2019-05-30T05:22:50.550Z,3.73
2019-05-30T05:25:20.443Z,3.20
2019-05-30T05:27:51.575Z,3.70
2019-05-30T05:30:22.432Z,4.63
2019-05-30T05:32:50.823Z,3.47
2019-05-30T05:35:20.778Z,4.03
2019-05-30T05:37:49.447Z,4.43
2019-05-30T05:40:18.328Z,4.27
2019-05-30T05:42:47.580Z,4.50
2019-05-30T05:45:16.534Z,4.80
2019-05-30T05:47:45.383Z,4.73
2019-05-30T05:50:16.570Z,4.30
2019-05-30T05:52:44.731Z,4.50
2019-05-30T05:55:16.599Z,4.53
2019-05-30T05:57:45.997Z,4.97
2019-05-30T06:00:14.856Z,5.57
2019-05-30T06:02:43.671Z,4.53
2019-05-30T06:05:13.937Z,5.27
2019-05-30T06:07:43.420Z,5.07
2019-05-30T06:10:12.544Z,5.97
2019-05-30T06:12:41.527Z,5.90
2019-05-30T06:15:11.373Z,5.60
2019-05-30T06:17:46.631Z,6.10
2019-05-30T06:20:15.480Z,6.53
2019-05-30T06:22:44.958Z,5.90
2019-05-30T06:25:18.918Z,6.60
2019-05-30T06:27:46.498Z,6.73
2019-05-30T06:30:16.222Z,6.83
2019-05-30T06:32:46.879Z,6.97
2019-05-30T06:35:17.041Z,6.50
2019-05-30T06:37:47.794Z,6.50
2019-05-30T06:40:17.376Z,6.90
2019-05-30T06:42:46.956Z,7.20
2019-05-30T06:45:16.001Z,6.40
2019-05-30T06:47:46.163Z,7.00
2019-05-30T06:50:15.091Z,7.27
2019-05-30T06:52:43.934Z,7.03
2019-05-30T06:55:12.976Z,6.63
2019-05-30T06:57:41.821Z,7.40
2019-05-30T07:00:12.159Z,7.63
2019-05-30T07:02:42.153Z,6.93
2019-05-30T07:05:11.727Z,6.60
2019-05-30T07:07:39.873Z,7.10
2019-05-30T07:10:08.800Z,7.43
2019-05-30T07:12:37.710Z,6.83
2019-05-30T07:15:09.080Z,7.10
2019-05-30T07:17:37.940Z,7.27
2019-05-30T07:20:07.495Z,7.07
2019-05-30T07:22:36.911Z,7.67
2019-05-30T07:25:08.104Z,6.87
2019-05-30T07:27:37.885Z,5.67
2019-05-30T07:30:06.881Z,6.87
2019-05-30T07:32:35.795Z,6.53
2019-05-30T07:35:07.235Z,6.50
2019-05-30T07:37:34.397Z,7.27
2019-05-30T07:40:03.442Z,7.83
2019-05-30T07:42:32.907Z,7.03
2019-05-30T07:45:01.796Z,7.47
2019-05-30T07:47:32.159Z,7.00
2019-05-30T07:50:01.194Z,7.87
2019-05-30T07:52:30.639Z,7.80
2019-05-30T07:54:58.889Z,7.67
2019-05-30T07:57:28.102Z,8.07
2019-05-30T07:59:57.926Z,8.57
2019-05-30T08:02:27.517Z,7.77
2019-05-30T08:04:55.718Z,7.90
2019-05-30T08:07:26.465Z,7.93
2019-05-30T08:09:54.881Z,9.40
2019-05-30T08:12:24.912Z,9.07
2019-05-30T08:14:53.884Z,7.90
2019-05-30T08:17:23.083Z,8.57
2019-05-30T08:19:51.976Z,9.07
2019-05-30T08:22:20.963Z,9.10
2019-05-30T08:24:49.932Z,9.20
2019-05-30T08:27:18.775Z,9.90
2019-05-30T08:29:47.731Z,15.23
2019-05-30T08:32:16.624Z,11.43
2019-05-30T08:34:45.464Z,11.20
2019-05-30T08:37:14.379Z,9.30
2019-05-30T08:39:43.942Z,9.40
2019-05-30T08:42:12.774Z,10.30
2019-05-30T08:44:42.638Z,10.03
2019-05-30T08:47:11.447Z,10.27
2019-05-30T08:49:40.463Z,9.40
2019-05-30T08:52:09.193Z,10.10
2019-05-30T08:54:38.534Z,9.90
2019-05-30T08:57:07.004Z,9.83
2019-05-30T08:59:36.637Z,9.57
2019-05-30T09:02:07.118Z,9.40
2019-05-30T09:04:35.913Z,8.93
2019-05-30T09:07:04.881Z,8.90
2019-05-30T09:09:33.680Z,11.23
2019-05-30T09:12:05.514Z,13.07
2019-05-30T09:14:34.348Z,10.47
2019-05-30T09:17:03.946Z,9.90
2019-05-30T09:19:32.775Z,8.90
2019-05-30T09:22:01.664Z,10.17
2019-05-30T09:24:30.480Z,10.80
2019-05-30T09:26:59.369Z,9.60
2019-05-30T09:29:28.262Z,10.17
2019-05-30T09:31:57.206Z,11.37
2019-05-30T09:34:26.114Z,10.83
2019-05-30T09:36:54.977Z,10.73
2019-05-30T09:39:23.822Z,10.93
2019-05-30T09:41:52.788Z,10.97
2019-05-30T09:44:21.913Z,11.90
2019-05-30T09:46:51.550Z,10.77
2019-05-30T09:49:20.408Z,12.33
2019-05-30T09:51:51.101Z,10.57
2019-05-30T09:54:19.160Z,10.97
2019-05-30T09:56:48.561Z,11.77
2019-05-30T09:59:16.948Z,11.40
2019-05-30T10:01:46.093Z,10.57
2019-05-30T10:04:15.473Z,10.50
2019-05-30T10:06:44.675Z,11.70
2019-05-30T10:09:13.339Z,10.40
2019-05-30T10:11:42.797Z,10.97
2019-05-30T10:14:11.361Z,10.73
2019-05-30T10:16:40.275Z,10.80
2019-05-30T10:19:09.155Z,10.73
2019-05-30T10:21:38.169Z,10.93
2019-05-30T10:24:07.119Z,10.67
2019-05-30T10:26:36.023Z,10.60
2019-05-30T10:29:04.912Z,10.43
2019-05-30T10:31:33.808Z,10.90
2019-05-30T10:34:03.289Z,10.53
2019-05-30T10:36:43.778Z,10.73
2019-05-30T10:39:02.605Z,11.37
2019-05-30T10:41:31.670Z,10.00
2019-05-30T10:44:00.568Z,9.77
2019-05-30T10:46:29.400Z,9.70
2019-05-30T10:48:58.286Z,10.47
2019-05-30T10:51:28.467Z,10.60
2019-05-30T10:53:57.797Z,9.63
2019-05-30T10:56:26.657Z,9.83
2019-05-30T10:58:55.511Z,10.53
2019-05-30T11:01:24.452Z,10.50
2019-05-30T11:03:53.287Z,10.47
2019-05-30T11:06:30.226Z,10.90
2019-05-30T11:08:59.647Z,11.60
2019-05-30T11:11:29.557Z,10.27
2019-05-30T11:13:59.362Z,10.93
2019-05-30T11:16:28.215Z,11.10
2019-05-30T11:18:57.927Z,10.73
2019-05-30T11:21:25.831Z,10.30
2019-05-30T11:23:56.635Z,10.87
2019-05-30T11:26:24.657Z,13.80
2019-05-30T11:28:54.696Z,12.13
2019-05-30T11:31:22.945Z,11.83
2019-05-30T11:33:52.826Z,10.87
2019-05-30T11:36:20.647Z,10.73
2019-05-30T11:38:52.011Z,10.20
2019-05-30T11:41:19.428Z,10.63
2019-05-30T11:43:49.370Z,11.07
2019-05-30T11:46:18.606Z,10.63
2019-05-30T11:48:47.495Z,10.83
2019-05-30T11:51:16.471Z,10.60
2019-05-30T11:53:45.833Z,10.93
2019-05-30T11:56:15.246Z,10.77
2019-05-30T11:58:44.333Z,10.13
2019-05-30T12:01:13.280Z,10.43
2019-05-30T12:03:43.087Z,9.50
2019-05-30T12:06:12.159Z,10.47
2019-05-30T12:08:41.135Z,10.37
2019-05-30T12:11:10.017Z,10.43
2019-05-30T12:13:38.913Z,10.70
2019-05-30T12:16:07.828Z,10.43
2019-05-30T12:18:36.722Z,11.20
2019-05-30T12:21:05.585Z,11.27
2019-05-30T12:23:34.983Z,10.37
2019-05-30T12:26:04.702Z,10.87
2019-05-30T12:28:33.884Z,11.30
2019-05-30T12:31:06.295Z,11.03
2019-05-30T12:33:31.605Z,11.50
2019-05-30T12:36:00.701Z,12.03
2019-05-30T12:38:29.473Z,11.00
2019-05-30T12:40:58.968Z,10.77
2019-05-30T12:43:28.472Z,11.63
2019-05-30T12:45:59.169Z,11.87
2019-05-30T12:48:28.047Z,11.30
2019-05-30T12:50:57.205Z,11.80
2019-05-30T12:53:25.828Z,12.33
2019-05-30T12:55:54.701Z,12.30
2019-05-30T12:58:23.528Z,12.30
2019-05-30T13:00:52.441Z,11.90
2019-05-30T13:03:22.301Z,12.43
2019-05-30T13:05:52.404Z,12.30
2019-05-30T13:08:22.173Z,13.03
2019-05-30T13:10:50.132Z,12.90
2019-05-30T13:13:20.369Z,12.53
2019-05-30T13:15:50.143Z,12.70
2019-05-30T13:18:19.060Z,12.83
2019-05-30T13:20:49.735Z,11.47
2019-05-30T13:23:18.606Z,10.93
2019-05-30T13:25:48.159Z,11.33
2019-05-30T13:28:18.071Z,10.90
2019-05-30T13:30:46.915Z,10.00
2019-05-30T13:33:15.830Z,8.90
2019-05-30T13:35:44.819Z,9.40
2019-05-30T13:38:26.106Z,8.03
2019-05-30T13:40:45.010Z,8.50
2019-05-30T13:43:14.442Z,7.50
2019-05-30T13:45:43.248Z,7.10
2019-05-30T13:48:14.566Z,7.87
2019-05-30T13:50:45.369Z,7.93
2019-05-30T13:53:14.320Z,7.50
2019-05-30T13:55:43.532Z,7.70
2019-05-30T13:58:12.443Z,8.97
2019-05-30T14:00:41.785Z,8.57
2019-05-30T14:03:10.764Z,8.77
2019-05-30T14:05:40.300Z,8.33
2019-05-30T14:08:13.785Z,8.87
2019-05-30T14:10:38.479Z,8.30
2019-05-30T14:13:07.439Z,8.43
2019-05-30T14:15:36.255Z,8.17
2019-05-30T14:18:05.166Z,7.93
2019-05-30T14:20:34.054Z,9.07
2019-05-30T14:23:03.276Z,9.13
2019-05-30T14:25:31.791Z,9.10
2019-05-30T14:28:01.519Z,9.10
2019-05-30T14:30:30.218Z,9.07
2019-05-30T14:32:59.192Z,8.53
2019-05-30T14:35:28.309Z,8.57
2019-05-30T14:37:57.176Z,8.60
2019-05-30T14:40:26.020Z,8.83
2019-05-30T14:42:54.955Z,8.70
2019-05-30T14:45:23.796Z,8.97
2019-05-30T14:47:52.669Z,8.73
2019-05-30T14:50:22.301Z,10.03
2019-05-30T14:52:52.239Z,9.80
2019-05-30T14:55:21.050Z,9.57
2019-05-30T14:57:50.475Z,9.67
2019-05-30T15:00:19.317Z,9.03
2019-05-30T15:02:52.181Z,8.83
2019-05-30T15:05:21.075Z,8.80
2019-05-30T15:07:50.184Z,9.10
2019-05-30T15:10:19.979Z,8.90
2019-05-30T15:12:49.696Z,8.33
2019-05-30T15:15:21.641Z,7.37
2019-05-30T15:17:51.386Z,7.47
2019-05-30T15:20:20.292Z,7.03
2019-05-30T15:22:51.044Z,6.53
2019-05-30T15:25:19.878Z,5.60
2019-05-30T15:27:48.750Z,5.47
2019-05-30T15:30:18.785Z,6.67
2019-05-30T15:32:47.589Z,5.70
2019-05-30T15:35:21.044Z,6.00
2019-05-30T15:37:49.940Z,5.40
2019-05-30T15:40:18.767Z,4.57
2019-05-30T15:42:47.683Z,5.03
2019-05-30T15:45:16.502Z,5.10
2019-05-30T15:47:45.372Z,5.20
2019-05-30T15:50:15.329Z,4.53
2019-05-30T15:52:43.718Z,5.17
2019-05-30T15:55:13.245Z,4.97
2019-05-30T15:57:42.505Z,5.30
2019-05-30T16:00:12.060Z,5.03
2019-05-30T16:02:41.120Z,4.97
2019-05-30T16:05:10.726Z,4.00
2019-05-30T16:07:39.703Z,4.20
2019-05-30T16:10:08.545Z,3.43
2019-05-30T16:12:37.412Z,2.60
2019-05-30T16:15:06.488Z,3.17
2019-05-30T16:17:38.237Z,3.53
2019-05-30T16:20:07.629Z,2.50
2019-05-30T16:22:38.119Z,2.60
2019-05-30T16:25:06.968Z,2.50
2019-05-30T16:27:35.857Z,2.30
2019-05-30T16:30:06.563Z,2.27
2019-05-30T16:32:35.369Z,2.73
2019-05-30T16:35:04.488Z,2.30
2019-05-30T16:37:33.441Z,2.53
2019-05-30T16:40:06.281Z,2.80
2019-05-30T16:42:31.767Z,2.60
2019-05-30T16:45:00.828Z,2.70
2019-05-30T16:47:31.864Z,2.23
2019-05-30T16:50:00.853Z,2.77
2019-05-30T16:52:29.695Z,2.27
2019-05-30T16:54:58.655Z,1.90
2019-05-30T16:57:27.531Z,1.37
2019-05-30T16:59:56.452Z,1.70
2019-05-30T17:02:26.996Z,1.23
2019-05-30T17:04:55.317Z,1.27
2019-05-30T17:07:24.144Z,1.63
2019-05-30T17:09:53.021Z,1.70
2019-05-30T17:12:22.121Z,1.87
2019-05-30T17:14:51.642Z,2.00
2019-05-30T17:17:22.044Z,2.40
2019-05-30T17:19:50.967Z,2.50
2019-05-30T17:22:22.771Z,2.37
2019-05-30T17:24:50.768Z,2.67
2019-05-30T17:27:19.760Z,2.67
2019-05-30T17:29:48.971Z,3.00
2019-05-30T17:32:19.706Z,3.30
2019-05-30T17:34:48.205Z,3.40
2019-05-30T17:37:18.067Z,3.00
2019-05-30T17:39:45.907Z,3.20
2019-05-30T17:42:14.867Z,3.23
2019-05-30T17:44:44.709Z,3.00
2019-05-30T17:47:13.591Z,3.30
2019-05-30T17:49:48.315Z,2.83
2019-05-30T17:52:17.140Z,3.43
2019-05-30T17:54:45.958Z,2.70
2019-05-30T17:57:15.009Z,3.07
2019-05-30T17:59:44.226Z,2.93
2019-05-30T18:02:20.313Z,2.23
2019-05-30T18:04:48.994Z,2.27
2019-05-30T18:07:17.843Z,2.20
2019-05-30T18:09:46.674Z,2.40
2019-05-30T18:12:15.553Z,2.77
2019-05-30T18:14:44.609Z,2.30
2019-05-30T18:17:14.232Z,2.47
2019-05-30T18:19:43.044Z,3.70
2019-05-30T18:22:11.924Z,1.90
2019-05-30T18:24:41.252Z,2.13
2019-05-30T18:27:10.203Z,1.70
2019-05-30T18:29:40.467Z,1.67
2019-05-30T18:32:09.368Z,1.77
2019-05-30T18:34:38.356Z,1.70
2019-05-30T18:37:07.220Z,1.63
2019-05-30T18:39:37.103Z,2.03
2019-05-30T18:42:05.952Z,1.73
2019-05-30T18:44:35.407Z,1.90
2019-05-30T18:47:04.364Z,2.07
2019-05-30T18:49:34.098Z,5.37
2019-05-30T18:52:03.521Z,3.10
2019-05-30T18:54:32.941Z,3.77
2019-05-30T18:57:01.552Z,3.90
2019-05-30T18:59:33.159Z,3.43
2019-05-30T19:02:01.215Z,3.60
2019-05-30T19:04:31.626Z,2.77
2019-05-30T19:07:00.082Z,3.00
2019-05-30T19:09:29.368Z,3.33
2019-05-30T19:11:57.821Z,3.23
2019-05-30T19:14:29.729Z,2.53
2019-05-30T19:16:55.561Z,3.00
2019-05-30T19:19:25.877Z,3.33
2019-05-30T19:21:54.969Z,3.00
2019-05-30T19:24:23.776Z,2.67
2019-05-30T19:26:52.627Z,2.77
2019-05-30T19:29:22.600Z,3.37
2019-05-30T19:31:52.097Z,2.67
2019-05-30T19:34:21.051Z,2.63
2019-05-30T19:36:54.691Z,2.93
2019-05-30T19:39:24.160Z,3.10
2019-05-30T19:41:57.396Z,2.87
2019-05-30T19:44:23.401Z,3.53
2019-05-30T19:46:53.179Z,3.50
2019-05-30T19:49:21.996Z,4.40
2019-05-30T19:51:51.740Z,3.70
2019-05-30T19:54:20.840Z,3.67
2019-05-30T19:56:50.970Z,3.40
2019-05-30T19:59:19.831Z,3.93
2019-05-30T20:01:48.933Z,5.37
2019-05-30T20:04:18.739Z,11.33
2019-05-30T20:06:47.602Z,13.77
2019-05-30T20:09:16.726Z,7.13
2019-05-30T20:12:01.844Z,4.90
2019-05-30T20:14:14.607Z,4.83
2019-05-30T20:16:43.438Z,4.10
2019-05-30T20:19:13.431Z,3.83
2019-05-30T20:21:42.207Z,4.40
2019-05-30T20:24:14.289Z,4.23
2019-05-30T20:26:43.173Z,4.70
2019-05-30T20:29:12.039Z,4.33
2019-05-30T20:31:43.499Z,4.30
2019-05-30T20:34:11.648Z,4.87
2019-05-30T20:36:40.868Z,4.20
2019-05-30T20:39:10.604Z,4.30
2019-05-30T20:41:43.154Z,4.70
2019-05-30T20:44:10.705Z,4.83
2019-05-30T20:46:41.157Z,4.60
2019-05-30T20:49:09.965Z,5.50
2019-05-30T20:51:41.276Z,5.10
2019-05-30T20:54:09.704Z,4.57
2019-05-30T20:56:39.461Z,5.50
2019-05-30T20:59:10.486Z,5.30
2019-05-30T21:01:39.651Z,6.93
2019-05-30T21:04:09.293Z,6.93
2019-05-30T21:06:41.536Z,7.03
2019-05-30T21:09:27.987Z,6.80
2019-05-30T21:11:42.180Z,6.23
2019-05-30T21:14:12.752Z,5.50
2019-05-30T21:16:42.084Z,4.70
2019-05-30T21:19:11.878Z,4.73
2019-05-30T21:21:42.554Z,5.17
2019-05-30T21:24:11.344Z,5.07
2019-05-30T21:26:42.796Z,5.27
2019-05-30T21:29:15.563Z,4.57
2019-05-30T21:31:51.389Z,4.93
2019-05-30T21:34:20.304Z,4.97
2019-05-30T21:36:49.149Z,5.43
2019-05-30T21:39:19.114Z,5.10
2019-05-30T21:41:48.532Z,5.10
2019-05-30T21:44:17.501Z,4.87
2019-05-30T21:46:48.849Z,4.23
2019-05-30T21:49:17.309Z,4.60
2019-05-30T21:51:47.544Z,5.10
2019-05-30T21:54:16.154Z,4.87
2019-05-30T21:56:45.986Z,5.07
2019-05-30T21:59:14.564Z,4.63
2019-05-30T22:01:44.850Z,4.50
2019-05-30T22:04:13.981Z,4.77
2019-05-30T22:06:44.982Z,4.70
2019-05-30T22:09:14.976Z,5.13
2019-05-30T22:11:43.796Z,4.87
2019-05-30T22:14:15.069Z,6.73
2019-05-30T22:16:45.802Z,6.20
2019-05-30T22:19:17.023Z,6.47
2019-05-30T22:21:46.158Z,5.90
2019-05-30T22:24:16.482Z,6.07
2019-05-30T22:26:48.456Z,5.23
2019-05-30T22:29:16.544Z,5.27
2019-05-30T22:31:46.505Z,5.07
2019-05-30T22:34:14.942Z,4.83
2019-05-30T22:36:45.024Z,5.03
2019-05-30T22:39:15.140Z,5.57
2019-05-30T22:41:45.846Z,6.77
2019-05-30T22:44:18.003Z,6.13
2019-05-30T22:46:48.140Z,5.60
2019-05-30T22:49:17.608Z,7.47
2019-05-30T22:51:49.143Z,4.47
2019-05-30T22:54:19.955Z,4.50
2019-05-30T22:56:49.375Z,3.70
2019-05-30T22:59:17.999Z,4.10
2019-05-30T23:01:51.944Z,4.77
2019-05-30T23:04:23.736Z,3.90
2019-05-30T23:06:52.859Z,5.60
2019-05-30T23:09:23.792Z,4.60
2019-05-30T23:11:53.775Z,4.50
2019-05-30T23:14:21.486Z,4.57
2019-05-30T23:16:52.326Z,4.00
2019-05-30T23:19:20.736Z,3.33
2019-05-30T23:21:57.278Z,3.60
2019-05-30T23:24:25.137Z,3.97
2019-05-30T23:26:54.042Z,4.33
2019-05-30T23:29:24.102Z,5.10
2019-05-30T23:31:54.031Z,6.33
2019-05-30T23:34:22.881Z,5.37
2019-05-30T23:36:52.429Z,4.30
2019-05-30T23:39:20.520Z,3.87
2019-05-30T23:41:51.317Z,3.60
2019-05-30T23:44:20.870Z,3.53
2019-05-30T23:46:51.506Z,3.80
2019-05-30T23:49:20.327Z,3.23
2019-05-30T23:51:49.923Z,4.13
2019-05-30T23:54:18.485Z,3.40
2019-05-30T23:56:47.306Z,3.73
2019-05-30T23:59:20.588Z,3.63
